SWA2735 KLAS-KRNO
Flight info
| Callsign | SWA2735 |
|---|---|
| Flight time | 1h 10m |
| Altitude | 34000 |
| Route | JOHKR5 KENNO TARVR2 |
| Aircraft | B738/M-SDE2E3FGHIRWXY/LB1 |
Departure
| Time | 2026-05-06 05:19 |
|---|---|
| Airport | Harry Reid International Airport (KLAS) |
Arrival
| Time | 2026-05-06 06:29 |
|---|---|
| Airport | Reno Tahoe International Airport (KRNO) |
| Time | Latitude | Longitude | Altitude | Speed | Heading |
|---|---|---|---|---|---|
| 2026-05-06 04:50 | 36.08122 | -115.14610 | 2096 ft | 0 kts | 254° |
| 2026-05-06 05:06 | 36.08126 | -115.14596 | 2110 ft | 3 kts | 249° |
| 2026-05-06 05:07 | 36.08134 | -115.14574 | 2096 ft | 3 kts | 232° |
| 2026-05-06 05:07 | 36.08148 | -115.14557 | 2096 ft | 3 kts | 208° |
| 2026-05-06 05:07 | 36.08166 | -115.14548 | 2096 ft | 3 kts | 182° |
| 2026-05-06 05:07 | 36.08185 | -115.14551 | 2096 ft | 2 kts | 159° |
| 2026-05-06 05:08 | 36.08190 | -115.14553 | 2096 ft | 2 kts | 155° |
| 2026-05-06 05:10 | 36.08148 | -115.14531 | 2096 ft | 11 kts | 158° |
| 2026-05-06 05:11 | 36.08077 | -115.14492 | 2096 ft | 11 kts | 157° |
| 2026-05-06 05:11 | 36.08003 | -115.14484 | 2096 ft | 11 kts | 180° |
| 2026-05-06 05:11 | 36.07950 | -115.14483 | 2095 ft | 2 kts | 179° |
| 2026-05-06 05:11 | 36.07948 | -115.14483 | 2095 ft | 0 kts | 179° |
| 2026-05-06 05:12 | 36.07923 | -115.14484 | 2095 ft | 6 kts | 180° |
| 2026-05-06 05:12 | 36.07918 | -115.14484 | 2095 ft | 0 kts | 181° |
| 2026-05-06 05:13 | 36.07917 | -115.14484 | 2095 ft | 1 kts | 181° |
| 2026-05-06 05:13 | 36.07894 | -115.14484 | 2095 ft | 6 kts | 181° |
| 2026-05-06 05:14 | 36.07877 | -115.14484 | 2095 ft | 1 kts | 175° |
| 2026-05-06 05:14 | 36.07839 | -115.14438 | 2095 ft | 13 kts | 109° |
| 2026-05-06 05:14 | 36.07828 | -115.14321 | 2095 ft | 13 kts | 91° |
| 2026-05-06 05:14 | 36.07827 | -115.14172 | 2094 ft | 19 kts | 90° |
| 2026-05-06 05:15 | 36.07827 | -115.14007 | 2092 ft | 23 kts | 90° |
| 2026-05-06 05:15 | 36.07827 | -115.13811 | 2092 ft | 23 kts | 90° |
| 2026-05-06 05:15 | 36.07828 | -115.13619 | 2091 ft | 22 kts | 90° |
| 2026-05-06 05:15 | 36.07828 | -115.13433 | 2089 ft | 21 kts | 89° |
| 2026-05-06 05:16 | 36.07828 | -115.13253 | 2086 ft | 21 kts | 89° |
| 2026-05-06 05:16 | 36.07828 | -115.13049 | 2077 ft | 27 kts | 89° |
| 2026-05-06 05:16 | 36.07829 | -115.12808 | 2068 ft | 29 kts | 90° |
| 2026-05-06 05:16 | 36.07828 | -115.12542 | 2059 ft | 32 kts | 90° |
| 2026-05-06 05:17 | 36.07822 | -115.12271 | 2052 ft | 31 kts | 109° |
| 2026-05-06 05:17 | 36.07762 | -115.12169 | 2049 ft | 2 kts | 129° |
| 2026-05-06 05:17 | 36.07743 | -115.12146 | 2048 ft | 12 kts | 140° |
| 2026-05-06 05:17 | 36.07640 | -115.12186 | 2053 ft | 20 kts | 268° |
| 2026-05-06 05:18 | 36.07642 | -115.12543 | 2059 ft | 73 kts | 270° |
| 2026-05-06 05:18 | 36.07641 | -115.13428 | 2087 ft | 131 kts | 270° |
| 2026-05-06 05:18 | 36.07641 | -115.14766 | 2163 ft | 174 kts | 269° |
| 2026-05-06 05:18 | 36.07739 | -115.16308 | 2694 ft | 189 kts | 274° |
| 2026-05-06 05:19 | 36.07826 | -115.17953 | 3380 ft | 194 kts | 267° |
| 2026-05-06 05:19 | 36.07760 | -115.19671 | 3821 ft | 207 kts | 263° |
| 2026-05-06 05:19 | 36.07530 | -115.21531 | 4106 ft | 228 kts | 259° |
| 2026-05-06 05:19 | 36.07235 | -115.23527 | 4640 ft | 241 kts | 257° |
| 2026-05-06 05:20 | 36.06556 | -115.25399 | 5506 ft | 241 kts | 229° |
| 2026-05-06 05:20 | 36.05207 | -115.26707 | 6025 ft | 259 kts | 206° |
| 2026-05-06 05:20 | 36.03475 | -115.27572 | 6543 ft | 274 kts | 200° |
| 2026-05-06 05:20 | 36.01653 | -115.28364 | 7223 ft | 282 kts | 200° |
| 2026-05-06 05:21 | 35.99784 | -115.29183 | 7860 ft | 286 kts | 200° |
| 2026-05-06 05:21 | 35.97936 | -115.30146 | 8321 ft | 292 kts | 208° |
| 2026-05-06 05:21 | 35.96139 | -115.31340 | 9004 ft | 299 kts | 210° |
| 2026-05-06 05:21 | 35.94302 | -115.32584 | 9845 ft | 301 kts | 209° |
| 2026-05-06 05:22 | 35.92440 | -115.33825 | 10529 ft | 308 kts | 208° |
| 2026-05-06 05:22 | 35.90564 | -115.35111 | 10982 ft | 311 kts | 215° |
| 2026-05-06 05:22 | 35.89123 | -115.37045 | 11015 ft | 307 kts | 245° |
| 2026-05-06 05:22 | 35.88517 | -115.39541 | 11014 ft | 304 kts | 269° |
| 2026-05-06 05:23 | 35.88510 | -115.42120 | 11039 ft | 301 kts | 275° |
| 2026-05-06 05:23 | 35.88592 | -115.44713 | 11028 ft | 303 kts | 275° |
| 2026-05-06 05:23 | 35.88739 | -115.49910 | 11026 ft | 302 kts | 275° |
| 2026-05-06 05:24 | 35.88794 | -115.52487 | 11024 ft | 300 kts | 275° |
| 2026-05-06 05:24 | 35.88848 | -115.55090 | 11070 ft | 311 kts | 275° |
| 2026-05-06 05:24 | 35.88907 | -115.57850 | 11253 ft | 333 kts | 274° |
| 2026-05-06 05:24 | 35.88967 | -115.60793 | 11596 ft | 351 kts | 274° |
| 2026-05-06 05:25 | 35.89025 | -115.63834 | 12226 ft | 356 kts | 274° |
| 2026-05-06 05:25 | 35.89080 | -115.66884 | 13052 ft | 357 kts | 274° |
| 2026-05-06 05:25 | 35.89134 | -115.69977 | 13676 ft | 364 kts | 274° |
| 2026-05-06 05:25 | 35.89190 | -115.73123 | 14282 ft | 369 kts | 274° |
| 2026-05-06 05:26 | 35.89245 | -115.76305 | 14937 ft | 373 kts | 274° |
| 2026-05-06 05:26 | 35.89301 | -115.79514 | 15595 ft | 376 kts | 274° |
| 2026-05-06 05:26 | 35.89357 | -115.82754 | 16225 ft | 380 kts | 274° |
| 2026-05-06 05:26 | 35.89414 | -115.86035 | 16852 ft | 385 kts | 274° |
| 2026-05-06 05:27 | 35.89469 | -115.89354 | 17475 ft | 389 kts | 274° |
| 2026-05-06 05:27 | 35.89790 | -115.92656 | 18053 ft | 388 kts | 291° |
| 2026-05-06 05:27 | 35.90982 | -115.95608 | 18605 ft | 384 kts | 310° |
| 2026-05-06 05:27 | 35.92769 | -115.98027 | 19187 ft | 382 kts | 319° |
| 2026-05-06 05:28 | 35.94667 | -116.00342 | 19696 ft | 386 kts | 320° |
| 2026-05-06 05:28 | 35.96598 | -116.02662 | 20183 ft | 390 kts | 320° |
| 2026-05-06 05:28 | 35.98546 | -116.05012 | 20734 ft | 393 kts | 320° |
| 2026-05-06 05:28 | 36.00498 | -116.07382 | 21278 ft | 396 kts | 320° |
| 2026-05-06 05:29 | 36.02472 | -116.09792 | 21788 ft | 400 kts | 320° |
| 2026-05-06 05:29 | 36.04462 | -116.12243 | 22140 ft | 407 kts | 320° |
| 2026-05-06 05:29 | 36.06455 | -116.14710 | 22847 ft | 404 kts | 321° |
| 2026-05-06 05:29 | 36.08294 | -116.16994 | 23345 ft | 407 kts | 321° |
| 2026-05-06 05:30 | 36.10310 | -116.19493 | 23671 ft | 413 kts | 321° |
| 2026-05-06 05:30 | 36.12344 | -116.22016 | 24033 ft | 416 kts | 321° |
| 2026-05-06 05:30 | 36.14384 | -116.24550 | 24491 ft | 416 kts | 321° |
| 2026-05-06 05:30 | 36.16426 | -116.27091 | 24913 ft | 417 kts | 321° |
| 2026-05-06 05:31 | 36.18483 | -116.29650 | 25298 ft | 420 kts | 321° |
| 2026-05-06 05:31 | 36.20552 | -116.32224 | 25681 ft | 423 kts | 321° |
| 2026-05-06 05:31 | 36.22629 | -116.34812 | 26086 ft | 424 kts | 321° |
| 2026-05-06 05:31 | 36.24713 | -116.37411 | 26478 ft | 426 kts | 322° |
| 2026-05-06 05:32 | 36.26812 | -116.40028 | 26841 ft | 429 kts | 322° |
| 2026-05-06 05:32 | 36.28924 | -116.42654 | 27209 ft | 431 kts | 322° |
| 2026-05-06 05:32 | 36.31080 | -116.45246 | 27546 ft | 432 kts | 323° |
| 2026-05-06 05:32 | 36.33265 | -116.47825 | 27893 ft | 435 kts | 323° |
| 2026-05-06 05:33 | 36.35464 | -116.50414 | 28252 ft | 437 kts | 323° |
| 2026-05-06 05:33 | 36.37671 | -116.53029 | 28601 ft | 439 kts | 323° |
| 2026-05-06 05:33 | 36.39884 | -116.55653 | 28940 ft | 441 kts | 323° |
| 2026-05-06 05:33 | 36.42106 | -116.58302 | 29234 ft | 444 kts | 323° |
| 2026-05-06 05:34 | 36.44340 | -116.60973 | 29567 ft | 447 kts | 323° |
| 2026-05-06 05:34 | 36.46604 | -116.63621 | 29870 ft | 449 kts | 323° |
| 2026-05-06 05:34 | 36.48886 | -116.66226 | 30267 ft | 442 kts | 328° |
| 2026-05-06 05:34 | 36.51220 | -116.68723 | 30684 ft | 442 kts | 325° |
| 2026-05-06 05:35 | 36.53486 | -116.71319 | 31065 ft | 442 kts | 325° |
| 2026-05-06 05:35 | 36.55734 | -116.73919 | 31391 ft | 441 kts | 325° |
| 2026-05-06 05:35 | 36.57983 | -116.76420 | 31674 ft | 436 kts | 329° |
| 2026-05-06 05:35 | 36.60308 | -116.78856 | 31952 ft | 440 kts | 325° |
| 2026-05-06 05:36 | 36.62551 | -116.81538 | 32207 ft | 446 kts | 319° |
| 2026-05-06 05:36 | 36.64638 | -116.84300 | 32524 ft | 439 kts | 324° |
| 2026-05-06 05:36 | 36.66885 | -116.86831 | 33052 ft | 432 kts | 326° |
| 2026-05-06 05:36 | 36.69166 | -116.89328 | 33356 ft | 432 kts | 326° |
| 2026-05-06 05:37 | 36.71359 | -116.91847 | 33542 ft | 435 kts | 326° |
| 2026-05-06 05:37 | 36.73629 | -116.94333 | 33805 ft | 431 kts | 333° |
| 2026-05-06 05:37 | 36.76193 | -116.96205 | 34153 ft | 417 kts | 340° |
| 2026-05-06 05:37 | 36.78734 | -116.97844 | 34374 ft | 417 kts | 340° |
| 2026-05-06 05:38 | 36.81325 | -116.99516 | 34497 ft | 420 kts | 340° |
| 2026-05-06 05:38 | 36.83933 | -117.01142 | 34760 ft | 418 kts | 339° |
| 2026-05-06 05:38 | 36.86512 | -117.02775 | 35059 ft | 415 kts | 340° |
| 2026-05-06 05:38 | 36.89101 | -117.04384 | 35265 ft | 417 kts | 339° |
| 2026-05-06 05:39 | 36.91688 | -117.06052 | 35423 ft | 419 kts | 338° |
| 2026-05-06 05:39 | 36.94278 | -117.07742 | 35627 ft | 420 kts | 338° |
| 2026-05-06 05:39 | 36.96861 | -117.09433 | 35864 ft | 419 kts | 338° |
| 2026-05-06 05:39 | 36.99450 | -117.11130 | 35868 ft | 423 kts | 338° |
| 2026-05-06 05:40 | 37.04667 | -117.14539 | 35878 ft | 422 kts | 339° |
| 2026-05-06 05:40 | 37.09834 | -117.17917 | 35884 ft | 418 kts | 338° |
| 2026-05-06 05:41 | 37.14965 | -117.21278 | 35902 ft | 416 kts | 338° |
| 2026-05-06 05:41 | 37.20087 | -117.24628 | 35902 ft | 415 kts | 338° |
| 2026-05-06 05:42 | 37.25186 | -117.27969 | 35912 ft | 413 kts | 338° |
| 2026-05-06 05:42 | 37.30263 | -117.31385 | 35917 ft | 417 kts | 331° |
| 2026-05-06 05:43 | 37.34777 | -117.36112 | 35916 ft | 425 kts | 325° |
| 2026-05-06 05:43 | 37.39186 | -117.40994 | 35917 ft | 426 kts | 325° |
| 2026-05-06 05:44 | 37.43686 | -117.45854 | 35926 ft | 427 kts | 326° |
| 2026-05-06 05:44 | 37.48215 | -117.50706 | 35915 ft | 428 kts | 326° |
| 2026-05-06 05:45 | 37.52958 | -117.55143 | 35924 ft | 423 kts | 334° |
| 2026-05-06 05:45 | 37.57986 | -117.58970 | 35926 ft | 423 kts | 335° |
| 2026-05-06 05:46 | 37.63031 | -117.62816 | 35926 ft | 424 kts | 334° |
| 2026-05-06 05:46 | 37.68056 | -117.66746 | 35927 ft | 425 kts | 334° |
| 2026-05-06 05:47 | 37.73056 | -117.70709 | 35920 ft | 424 kts | 334° |
| 2026-05-06 05:47 | 37.78039 | -117.74677 | 35922 ft | 422 kts | 334° |
| 2026-05-06 05:48 | 37.82989 | -117.78650 | 35929 ft | 420 kts | 334° |
| 2026-05-06 05:48 | 37.87952 | -117.82519 | 35946 ft | 418 kts | 334° |
| 2026-05-06 05:49 | 37.92872 | -117.86453 | 35957 ft | 418 kts | 334° |
| 2026-05-06 05:49 | 37.97770 | -117.90413 | 35947 ft | 416 kts | 334° |
| 2026-05-06 05:50 | 38.02649 | -117.94354 | 35952 ft | 415 kts | 334° |
| 2026-05-06 05:50 | 38.07504 | -117.98261 | 35948 ft | 406 kts | 334° |
| 2026-05-06 05:51 | 38.12140 | -118.01999 | 35639 ft | 391 kts | 334° |
| 2026-05-06 05:51 | 38.14416 | -118.03834 | 35323 ft | 385 kts | 335° |
| 2026-05-06 05:51 | 38.16671 | -118.05648 | 34975 ft | 382 kts | 335° |
| 2026-05-06 05:52 | 38.18909 | -118.07451 | 34603 ft | 380 kts | 335° |
| 2026-05-06 05:52 | 38.21133 | -118.09244 | 34255 ft | 377 kts | 335° |
| 2026-05-06 05:52 | 38.23345 | -118.11030 | 33899 ft | 375 kts | 335° |
| 2026-05-06 05:52 | 38.25535 | -118.12799 | 33500 ft | 372 kts | 335° |
| 2026-05-06 05:53 | 38.27714 | -118.14561 | 33120 ft | 370 kts | 335° |
| 2026-05-06 05:53 | 38.29876 | -118.16312 | 32759 ft | 367 kts | 335° |
| 2026-05-06 05:53 | 38.32022 | -118.18053 | 32406 ft | 364 kts | 335° |
| 2026-05-06 05:53 | 38.34151 | -118.19772 | 32078 ft | 361 kts | 335° |
| 2026-05-06 05:54 | 38.36255 | -118.21481 | 31725 ft | 359 kts | 335° |
| 2026-05-06 05:54 | 38.38358 | -118.23190 | 31377 ft | 356 kts | 334° |
| 2026-05-06 05:54 | 38.40443 | -118.24884 | 31046 ft | 354 kts | 334° |
| 2026-05-06 05:54 | 38.42462 | -118.26688 | 30668 ft | 358 kts | 327° |
| 2026-05-06 05:55 | 38.44306 | -118.28850 | 30283 ft | 361 kts | 323° |
| 2026-05-06 05:55 | 38.46087 | -118.31093 | 29960 ft | 360 kts | 322° |
| 2026-05-06 05:55 | 38.47852 | -118.33352 | 29580 ft | 358 kts | 322° |
| 2026-05-06 05:55 | 38.49605 | -118.35585 | 29229 ft | 355 kts | 322° |
| 2026-05-06 05:56 | 38.51354 | -118.37792 | 28865 ft | 352 kts | 322° |
| 2026-05-06 05:56 | 38.53070 | -118.39939 | 28566 ft | 349 kts | 322° |
| 2026-05-06 05:56 | 38.54827 | -118.42125 | 28202 ft | 346 kts | 322° |
| 2026-05-06 05:56 | 38.56546 | -118.44257 | 27856 ft | 343 kts | 323° |
| 2026-05-06 05:57 | 38.58252 | -118.46371 | 27545 ft | 340 kts | 322° |
| 2026-05-06 05:57 | 38.59946 | -118.48470 | 27213 ft | 338 kts | 322° |
| 2026-05-06 05:57 | 38.61625 | -118.50552 | 26883 ft | 335 kts | 322° |
| 2026-05-06 05:57 | 38.63292 | -118.52620 | 26566 ft | 332 kts | 322° |
| 2026-05-06 05:58 | 38.64922 | -118.54643 | 26246 ft | 330 kts | 322° |
| 2026-05-06 05:58 | 38.66561 | -118.56679 | 25925 ft | 327 kts | 322° |
| 2026-05-06 05:58 | 38.68191 | -118.58705 | 25559 ft | 326 kts | 322° |
| 2026-05-06 05:58 | 38.69820 | -118.60728 | 25241 ft | 326 kts | 322° |
| 2026-05-06 05:59 | 38.71449 | -118.62753 | 24944 ft | 328 kts | 322° |
| 2026-05-06 05:59 | 38.73107 | -118.64814 | 24627 ft | 338 kts | 322° |
| 2026-05-06 05:59 | 38.74808 | -118.66928 | 24227 ft | 343 kts | 321° |
| 2026-05-06 05:59 | 38.76518 | -118.69054 | 23901 ft | 341 kts | 321° |
| 2026-05-06 06:00 | 38.78217 | -118.71169 | 23565 ft | 340 kts | 321° |
| 2026-05-06 06:00 | 38.79909 | -118.73275 | 23177 ft | 339 kts | 321° |
| 2026-05-06 06:00 | 38.81593 | -118.75373 | 22815 ft | 337 kts | 321° |
| 2026-05-06 06:00 | 38.83269 | -118.77464 | 22474 ft | 334 kts | 321° |
| 2026-05-06 06:01 | 38.84391 | -118.78863 | 22257 ft | 333 kts | 321° |
| 2026-05-06 06:01 | 38.86044 | -118.80926 | 21924 ft | 331 kts | 321° |
| 2026-05-06 06:01 | 38.87691 | -118.82981 | 21605 ft | 329 kts | 321° |
| 2026-05-06 06:01 | 38.89335 | -118.85032 | 21277 ft | 328 kts | 321° |
| 2026-05-06 06:02 | 38.90966 | -118.87073 | 20952 ft | 327 kts | 321° |
| 2026-05-06 06:02 | 38.92590 | -118.89105 | 20650 ft | 326 kts | 321° |
| 2026-05-06 06:02 | 38.94212 | -118.91135 | 20327 ft | 325 kts | 320° |
| 2026-05-06 06:02 | 38.95821 | -118.93152 | 20011 ft | 323 kts | 320° |
| 2026-05-06 06:03 | 38.97426 | -118.95167 | 19702 ft | 321 kts | 320° |
| 2026-05-06 06:03 | 38.99017 | -118.97162 | 19376 ft | 319 kts | 320° |
| 2026-05-06 06:03 | 39.00603 | -118.99152 | 19079 ft | 318 kts | 320° |
| 2026-05-06 06:03 | 39.02181 | -119.01134 | 18763 ft | 316 kts | 320° |
| 2026-05-06 06:04 | 39.03733 | -119.03084 | 18461 ft | 315 kts | 320° |
| 2026-05-06 06:04 | 39.05298 | -119.05052 | 18127 ft | 314 kts | 320° |
| 2026-05-06 06:04 | 39.06858 | -119.07015 | 17776 ft | 313 kts | 320° |
| 2026-05-06 06:04 | 39.08407 | -119.08967 | 17462 ft | 311 kts | 320° |
| 2026-05-06 06:05 | 39.09946 | -119.10907 | 17148 ft | 309 kts | 320° |
| 2026-05-06 06:05 | 39.11479 | -119.12840 | 16814 ft | 307 kts | 320° |
| 2026-05-06 06:05 | 39.13003 | -119.14763 | 16503 ft | 306 kts | 320° |
| 2026-05-06 06:05 | 39.14515 | -119.16672 | 16195 ft | 304 kts | 320° |
| 2026-05-06 06:06 | 39.16022 | -119.18573 | 15888 ft | 302 kts | 320° |
| 2026-05-06 06:06 | 39.17517 | -119.20459 | 15586 ft | 300 kts | 320° |
| 2026-05-06 06:06 | 39.19004 | -119.22336 | 15288 ft | 298 kts | 320° |
| 2026-05-06 06:06 | 39.20480 | -119.24200 | 14989 ft | 296 kts | 320° |
| 2026-05-06 06:07 | 39.21948 | -119.26055 | 14687 ft | 295 kts | 320° |
| 2026-05-06 06:07 | 39.23407 | -119.27899 | 14397 ft | 293 kts | 320° |
| 2026-05-06 06:07 | 39.24862 | -119.29740 | 14115 ft | 292 kts | 320° |
| 2026-05-06 06:07 | 39.26307 | -119.31571 | 13827 ft | 291 kts | 320° |
| 2026-05-06 06:08 | 39.27751 | -119.33400 | 13508 ft | 290 kts | 320° |
| 2026-05-06 06:08 | 39.29188 | -119.35222 | 13187 ft | 289 kts | 320° |
| 2026-05-06 06:08 | 39.30621 | -119.37039 | 12873 ft | 288 kts | 320° |
| 2026-05-06 06:08 | 39.32047 | -119.38850 | 12589 ft | 287 kts | 320° |
| 2026-05-06 06:09 | 39.33468 | -119.40654 | 12287 ft | 285 kts | 320° |
| 2026-05-06 06:09 | 39.34879 | -119.42447 | 11991 ft | 284 kts | 320° |
| 2026-05-06 06:09 | 39.36352 | -119.44090 | 11760 ft | 277 kts | 327° |
| 2026-05-06 06:09 | 39.37892 | -119.45518 | 11538 ft | 275 kts | 329° |
| 2026-05-06 06:10 | 39.39469 | -119.46937 | 11343 ft | 277 kts | 329° |
| 2026-05-06 06:10 | 39.41043 | -119.48364 | 11120 ft | 276 kts | 328° |
| 2026-05-06 06:10 | 39.42601 | -119.49794 | 10910 ft | 273 kts | 328° |
| 2026-05-06 06:10 | 39.44139 | -119.51217 | 10691 ft | 270 kts | 328° |
| 2026-05-06 06:11 | 39.45652 | -119.52625 | 10490 ft | 266 kts | 328° |
| 2026-05-06 06:11 | 39.47143 | -119.54020 | 10283 ft | 263 kts | 328° |
| 2026-05-06 06:11 | 39.48617 | -119.55400 | 10071 ft | 260 kts | 328° |
| 2026-05-06 06:11 | 39.50052 | -119.56748 | 10000 ft | 250 kts | 328° |
| 2026-05-06 06:12 | 39.51430 | -119.58042 | 9992 ft | 241 kts | 328° |
| 2026-05-06 06:12 | 39.52788 | -119.59313 | 9981 ft | 240 kts | 328° |
| 2026-05-06 06:12 | 39.54135 | -119.60572 | 9980 ft | 239 kts | 328° |
| 2026-05-06 06:12 | 39.55481 | -119.61836 | 9972 ft | 239 kts | 328° |
| 2026-05-06 06:13 | 39.56819 | -119.63100 | 9989 ft | 236 kts | 328° |
| 2026-05-06 06:13 | 39.58124 | -119.64326 | 10010 ft | 226 kts | 328° |
| 2026-05-06 06:13 | 39.59354 | -119.65488 | 9985 ft | 211 kts | 327° |
| 2026-05-06 06:13 | 39.60363 | -119.66798 | 9959 ft | 203 kts | 310° |
| 2026-05-06 06:14 | 39.61004 | -119.68456 | 9983 ft | 209 kts | 293° |
| 2026-05-06 06:14 | 39.61283 | -119.70322 | 10028 ft | 209 kts | 289° |
| 2026-05-06 06:14 | 39.61838 | -119.71973 | 9975 ft | 193 kts | 312° |
| 2026-05-06 06:14 | 39.62801 | -119.73099 | 9464 ft | 185 kts | 347° |
| 2026-05-06 06:15 | 39.64111 | -119.73270 | 8641 ft | 199 kts | 360° |
| 2026-05-06 06:15 | 39.65477 | -119.73413 | 8179 ft | 197 kts | 343° |
| 2026-05-06 06:15 | 39.66519 | -119.74437 | 7859 ft | 192 kts | 305° |
| 2026-05-06 06:15 | 39.66838 | -119.76122 | 7480 ft | 192 kts | 266° |
| 2026-05-06 06:16 | 39.66355 | -119.77677 | 7339 ft | 193 kts | 224° |
| 2026-05-06 06:16 | 39.65079 | -119.78297 | 7423 ft | 214 kts | 176° |
| 2026-05-06 06:16 | 39.63634 | -119.77778 | 7055 ft | 217 kts | 160° |
| 2026-05-06 06:16 | 39.62210 | -119.77253 | 6683 ft | 212 kts | 168° |
| 2026-05-06 06:17 | 39.60793 | -119.76891 | 6412 ft | 198 kts | 174° |
| 2026-05-06 06:17 | 39.59466 | -119.76830 | 6077 ft | 184 kts | 183° |
| 2026-05-06 06:17 | 39.58230 | -119.76879 | 5799 ft | 170 kts | 184° |
| 2026-05-06 06:17 | 39.57127 | -119.76910 | 5657 ft | 156 kts | 182° |
| 2026-05-06 06:18 | 39.56069 | -119.76910 | 5465 ft | 149 kts | 181° |
| 2026-05-06 06:18 | 39.55039 | -119.76913 | 5271 ft | 148 kts | 180° |
| 2026-05-06 06:18 | 39.54005 | -119.76913 | 5072 ft | 150 kts | 180° |
| 2026-05-06 06:18 | 39.52963 | -119.76918 | 4875 ft | 151 kts | 180° |
| 2026-05-06 06:19 | 39.51925 | -119.76922 | 4640 ft | 153 kts | 179° |
| 2026-05-06 06:19 | 39.51001 | -119.76926 | 4450 ft | 153 kts | 178° |
| 2026-05-06 06:19 | 39.49994 | -119.76920 | 4637 ft | 166 kts | 179° |
| 2026-05-06 06:19 | 39.48731 | -119.76924 | 5103 ft | 197 kts | 180° |
| 2026-05-06 06:20 | 39.47304 | -119.76923 | 5821 ft | 207 kts | 181° |
| 2026-05-06 06:20 | 39.45861 | -119.77270 | 6309 ft | 227 kts | 217° |
| 2026-05-06 06:20 | 39.45153 | -119.79040 | 6816 ft | 232 kts | 274° |
| 2026-05-06 06:20 | 39.45872 | -119.80844 | 7301 ft | 228 kts | 326° |
| 2026-05-06 06:21 | 39.47288 | -119.81635 | 7232 ft | 225 kts | 343° |
| 2026-05-06 06:21 | 39.48813 | -119.82014 | 6983 ft | 218 kts | 353° |
| 2026-05-06 06:21 | 39.50294 | -119.82137 | 6783 ft | 209 kts | 355° |
| 2026-05-06 06:21 | 39.51729 | -119.82210 | 6553 ft | 203 kts | 357° |
| 2026-05-06 06:22 | 39.53121 | -119.82226 | 6509 ft | 198 kts | 359° |
| 2026-05-06 06:22 | 39.54485 | -119.82196 | 6625 ft | 193 kts | 0° |
| 2026-05-06 06:22 | 39.55834 | -119.82119 | 6926 ft | 198 kts | 1° |
| 2026-05-06 06:22 | 39.57226 | -119.82127 | 6930 ft | 200 kts | 358° |
| 2026-05-06 06:23 | 39.58605 | -119.82145 | 7015 ft | 197 kts | 5° |
| 2026-05-06 06:23 | 39.59751 | -119.81340 | 7026 ft | 188 kts | 52° |
| 2026-05-06 06:23 | 39.60239 | -119.79813 | 6719 ft | 186 kts | 82° |
| 2026-05-06 06:23 | 39.60084 | -119.78210 | 6488 ft | 174 kts | 114° |
| 2026-05-06 06:24 | 39.59301 | -119.77066 | 6166 ft | 171 kts | 153° |
| 2026-05-06 06:24 | 39.58185 | -119.76780 | 5903 ft | 161 kts | 186° |
| 2026-05-06 06:24 | 39.57080 | -119.76864 | 5727 ft | 159 kts | 184° |
| 2026-05-06 06:24 | 39.55971 | -119.76898 | 5552 ft | 161 kts | 181° |
| 2026-05-06 06:25 | 39.54856 | -119.76909 | 5299 ft | 159 kts | 180° |
| 2026-05-06 06:25 | 39.53750 | -119.76907 | 5028 ft | 158 kts | 179° |
| 2026-05-06 06:25 | 39.51531 | -119.76919 | 4520 ft | 160 kts | 179° |
| 2026-05-06 06:26 | 39.50460 | -119.76931 | 4423 ft | 141 kts | 179° |
| 2026-05-06 06:26 | 39.49572 | -119.76920 | 4430 ft | 115 kts | 177° |
| 2026-05-06 06:26 | 39.48739 | -119.76887 | 4495 ft | 139 kts | 176° |
| 2026-05-06 06:26 | 39.47720 | -119.76853 | 5148 ft | 139 kts | 178° |
| 2026-05-06 06:27 | 39.46791 | -119.76644 | 5481 ft | 147 kts | 166° |
| 2026-05-06 06:27 | 39.45809 | -119.76076 | 5797 ft | 157 kts | 133° |
| 2026-05-06 06:27 | 39.45593 | -119.74781 | 5921 ft | 158 kts | 63° |
| 2026-05-06 06:27 | 39.46440 | -119.74214 | 5930 ft | 147 kts | 345° |
| 2026-05-06 06:28 | 39.47418 | -119.74895 | 5268 ft | 168 kts | 328° |
| 2026-05-06 06:28 | 39.48412 | -119.75695 | 4850 ft | 167 kts | 328° |
| 2026-05-06 06:28 | 39.49374 | -119.76483 | 4492 ft | 160 kts | 328° |
| 2026-05-06 06:28 | 39.50240 | -119.77190 | 4412 ft | 124 kts | 324° |
| 2026-05-06 06:29 | 39.50456 | -119.77417 | 4414 ft | 0 kts | 346° |
| 2026-05-06 06:29 | 39.50451 | -119.77416 | 4414 ft | 4 kts | 332° |
| 2026-05-06 06:29 | 39.50419 | -119.77376 | 4413 ft | 1 kts | 347° |
| 2026-05-06 06:30 | 39.50437 | -119.77376 | 4413 ft | 5 kts | 358° |
| 2026-05-06 06:30 | 39.50441 | -119.77377 | 4413 ft | 0 kts | 357° |